Thief River Falls, MN (56701)

3:18 PM CST on February 08, 2016 (GMT -0600)
Northern Thief River Falls | | Change Station
CLOSE
Current Station
Personal Weather Station
Location: Thief River Falls, MN
Elevation: 1135 ft
Nearby Weather Stations
Active Advisory: Winter Weather Advisory

Elev 1135 ft 48.12 °N, 96.18 °W | Updated 15 seconds ago

Overcast
Overcast
11.3 °F
Feels Like 11 °F
N
0.2
Wind Variable Wind from NNE
Gusts 2.5 mph

Today
High -- | Low -- °F
--% Chance of Precip.
Yesterday
High -- | Low -- °F
Precip. -- in
Pressure 30.19 in
Visibility 0.5 miles
Clouds
Windchill 11 °F
Dew Point 0 °F
Humidity 61%
Rainfall 0.00 in
Snow Depth Not available.
7:43 AM 5:35 PM
New Moon, 0% visible
METAR KCKN 082054Z AUTO 34024G31KT 1/2SM -SN VV005 M12/M13 A3019 RMK AO2
Pressure 30.19 in
Visibility 0.5 miles
Clouds
Windchill 11 °F
Dew Point 0 °F
Humidity 61%
Rainfall 0.00 in
Snow Depth Not available.
7:43 AM 5:35 PM
New Moon, 0% visible
METAR KCKN 082054Z AUTO 34024G31KT 1/2SM -SN VV005 M12/M13 A3019 RMK AO2

10-Day Weather Forecast

Almanac

Astronomy

Feb. 08, 2016 Rise Set
Actual Time
Civil Twilight
Nautical Twilight
Astronomical Twilight
Moon
Length of Visible Light
Length of Day
Tomorrow will be .
, % of the Moon is Illuminated

Today's Extremes

State Highs State Lows

Community

WunderPhotos

Upload Photos

1,891,516 photos uploaded!

WunderBlog® & News

Nearby

Air Quality

  Air Quality AQ Index Pollutant
Not available.

Snow Depth

Station Depth Elevation

Earthquake Activity

City Distance Mag. Time & Date
Minimum magnitude displayed is 2.5.

Coastal Water Temperatures

Place Temperature

Stations

Nearby Weather Stations

Station Location Temp. Windchill Dew Point Humidity Wind Precip. Elev Updated Type
                   

Watches & Warnings

Winter Weather Advisory
Issued: 3:12 PM CST Feb. 8, 2016 – National Weather Service

... Winter Weather Advisory remains in effect until 6 PM CST this
evening...

* timing... expect snow showers and gusty winds to continue
through the afternoon.

* Winds / visibilities... winds gusting as high as 35 mph will
cause areas lower visibility to a mile or less with snow
showers.

* Impacts... plan on periodic low visibility affecting travel.

* Winds... northwest 20 to 25 mph with gusts up to 35 mph.

Precautionary/preparedness actions...

A Winter Weather Advisory means that visibilities will be limited
due to strong winds and bands of snow showers. Use caution when
traveling... especially in open areas.